sensor_id;sensor_type;location;lat;lon;timestamp;pressure;altitude;pressure_sealevel;temperature
67829;BMP280;54626;45.436;10.942;2023-03-13T00:01:40;100868.44;;;8.31
67829;BMP280;54626;45.436;10.942;2023-03-13T00:04:07;100862.69;;;8.29
67829;BMP280;54626;45.436;10.942;2023-03-13T00:06:36;100862.25;;;8.25
67829;BMP280;54626;45.436;10.942;2023-03-13T00:09:05;100876.03;;;8.20
67829;BMP280;54626;45.436;10.942;2023-03-13T00:11:32;100872.28;;;8.17
67829;BMP280;54626;45.436;10.942;2023-03-13T00:14:03;100878.34;;;8.16
67829;BMP280;54626;45.436;10.942;2023-03-13T00:16:30;100874.31;;;8.11
67829;BMP280;54626;45.436;10.942;2023-03-13T00:18:57;100874.63;;;8.02
67829;BMP280;54626;45.436;10.942;2023-03-13T00:21:26;100876.63;;;7.96
67829;BMP280;54626;45.436;10.942;2023-03-13T00:23:53;100875.69;;;7.94
67829;BMP280;54626;45.436;10.942;2023-03-13T00:26:22;100877.19;;;7.95
67829;BMP280;54626;45.436;10.942;2023-03-13T00:28:49;100871.41;;;7.87
67829;BMP280;54626;45.436;10.942;2023-03-13T00:31:18;100866.97;;;7.73
67829;BMP280;54626;45.436;10.942;2023-03-13T00:33:48;100872.22;;;7.77
67829;BMP280;54626;45.436;10.942;2023-03-13T00:36:19;100873.44;;;7.87
67829;BMP280;54626;45.436;10.942;2023-03-13T00:38:46;100872.16;;;7.93
67829;BMP280;54626;45.436;10.942;2023-03-13T00:41:21;100870.41;;;7.90
67829;BMP280;54626;45.436;10.942;2023-03-13T00:43:48;100862.16;;;7.85
67829;BMP280;54626;45.436;10.942;2023-03-13T00:46:17;100860.75;;;7.73
67829;BMP280;54626;45.436;10.942;2023-03-13T00:48:44;100874.50;;;7.67
67829;BMP280;54626;45.436;10.942;2023-03-13T00:51:11;100869.72;;;7.79
67829;BMP280;54626;45.436;10.942;2023-03-13T00:53:38;100870.38;;;7.96
67829;BMP280;54626;45.436;10.942;2023-03-13T00:56:07;100863.09;;;7.98
67829;BMP280;54626;45.436;10.942;2023-03-13T00:58:36;100867.16;;;7.92
67829;BMP280;54626;45.436;10.942;2023-03-13T01:01:23;100862.97;;;7.80
67829;BMP280;54626;45.436;10.942;2023-03-13T01:03:53;100853.19;;;7.84
67829;BMP280;54626;45.436;10.942;2023-03-13T01:06:22;100841.13;;;7.87
67829;BMP280;54626;45.436;10.942;2023-03-13T01:08:49;100843.88;;;7.93
67829;BMP280;54626;45.436;10.942;2023-03-13T01:11:37;100836.09;;;7.97
67829;BMP280;54626;45.436;10.942;2023-03-13T01:14:06;100841.09;;;8.04
67829;BMP280;54626;45.436;10.942;2023-03-13T01:16:34;100841.78;;;8.10
67829;BMP280;54626;45.436;10.942;2023-03-13T01:19:05;100848.53;;;8.14
67829;BMP280;54626;45.436;10.942;2023-03-13T01:21:32;100855.00;;;8.17
67829;BMP280;54626;45.436;10.942;2023-03-13T01:24:01;100852.78;;;8.15
67829;BMP280;54626;45.436;10.942;2023-03-13T01:26:27;100850.28;;;8.12
67829;BMP280;54626;45.436;10.942;2023-03-13T01:28:54;100841.75;;;8.15
67829;BMP280;54626;45.436;10.942;2023-03-13T01:31:23;100837.78;;;8.11
67829;BMP280;54626;45.436;10.942;2023-03-13T01:33:54;100842.28;;;8.14
67829;BMP280;54626;45.436;10.942;2023-03-13T01:36:21;100835.97;;;8.19
67829;BMP280;54626;45.436;10.942;2023-03-13T01:38:48;100838.97;;;8.21
67829;BMP280;54626;45.436;10.942;2023-03-13T01:41:15;100835.47;;;8.20
67829;BMP280;54626;45.436;10.942;2023-03-13T01:43:43;100832.22;;;8.22
67829;BMP280;54626;45.436;10.942;2023-03-13T01:46:18;100828.69;;;8.21
67829;BMP280;54626;45.436;10.942;2023-03-13T01:49:06;100828.50;;;8.14
67829;BMP280;54626;45.436;10.942;2023-03-13T01:51:44;100835.22;;;8.18
67829;BMP280;54626;45.436;10.942;2023-03-13T01:54:23;100825.69;;;8.19
67829;BMP280;54626;45.436;10.942;2023-03-13T01:56:51;100828.75;;;8.16
67829;BMP280;54626;45.436;10.942;2023-03-13T01:59:23;100828.22;;;8.17
67829;BMP280;54626;45.436;10.942;2023-03-13T02:01:52;100832.22;;;8.16
67829;BMP280;54626;45.436;10.942;2023-03-13T02:04:22;100827.44;;;8.22
67829;BMP280;54626;45.436;10.942;2023-03-13T02:06:51;100829.41;;;8.27
67829;BMP280;54626;45.436;10.942;2023-03-13T02:09:22;100836.16;;;8.26
67829;BMP280;54626;45.436;10.942;2023-03-13T02:11:57;100837.72;;;8.22
67829;BMP280;54626;45.436;10.942;2023-03-13T02:14:27;100843.16;;;8.27
67829;BMP280;54626;45.436;10.942;2023-03-13T02:16:54;100845.19;;;8.26
67829;BMP280;54626;45.436;10.942;2023-03-13T02:19:28;100843.22;;;8.22
67829;BMP280;54626;45.436;10.942;2023-03-13T02:22:00;100837.03;;;8.16
67829;BMP280;54626;45.436;10.942;2023-03-13T02:24:44;100845.03;;;8.14
67829;BMP280;54626;45.436;10.942;2023-03-13T02:27:12;100846.28;;;8.07
67829;BMP280;54626;45.436;10.942;2023-03-13T02:29:39;100840.06;;;8.01
67829;BMP280;54626;45.436;10.942;2023-03-13T02:32:06;100825.56;;;8.01
67829;BMP280;54626;45.436;10.942;2023-03-13T02:34:34;100821.75;;;8.09
67829;BMP280;54626;45.436;10.942;2023-03-13T02:37:03;100804.03;;;8.05
67829;BMP280;54626;45.436;10.942;2023-03-13T02:39:32;100796.56;;;7.94
67829;BMP280;54626;45.436;10.942;2023-03-13T02:41:59;100796.31;;;7.92
67829;BMP280;54626;45.436;10.942;2023-03-13T02:44:26;100796.03;;;7.96
67829;BMP280;54626;45.436;10.942;2023-03-13T02:46:53;100798.81;;;7.96
67829;BMP280;54626;45.436;10.942;2023-03-13T02:49:23;100800.72;;;8.06
67829;BMP280;54626;45.436;10.942;2023-03-13T02:51:52;100799.72;;;8.09
67829;BMP280;54626;45.436;10.942;2023-03-13T02:54:29;100800.66;;;8.17
67829;BMP280;54626;45.436;10.942;2023-03-13T02:56:59;100809.16;;;8.19
67829;BMP280;54626;45.436;10.942;2023-03-13T02:59:27;100823.75;;;8.09
67829;BMP280;54626;45.436;10.942;2023-03-13T03:01:54;100826.84;;;7.94
67829;BMP280;54626;45.436;10.942;2023-03-13T03:04:21;100833.91;;;7.84
67829;BMP280;54626;45.436;10.942;2023-03-13T03:06:49;100833.66;;;7.82
67829;BMP280;54626;45.436;10.942;2023-03-13T03:09:18;100845.69;;;7.79
67829;BMP280;54626;45.436;10.942;2023-03-13T03:11:45;100851.19;;;7.74
67829;BMP280;54626;45.436;10.942;2023-03-13T03:14:12;100845.19;;;7.75
67829;BMP280;54626;45.436;10.942;2023-03-13T03:16:39;100835.91;;;7.78
67829;BMP280;54626;45.436;10.942;2023-03-13T03:19:06;100827.66;;;7.84
67829;BMP280;54626;45.436;10.942;2023-03-13T03:21:34;100830.63;;;7.91
67829;BMP280;54626;45.436;10.942;2023-03-13T03:24:00;100842.34;;;7.97
67829;BMP280;54626;45.436;10.942;2023-03-13T03:26:27;100847.84;;;8.03
67829;BMP280;54626;45.436;10.942;2023-03-13T03:28:53;100851.56;;;8.05
67829;BMP280;54626;45.436;10.942;2023-03-13T03:31:20;100845.81;;;8.03
67829;BMP280;54626;45.436;10.942;2023-03-13T03:33:49;100856.06;;;8.08
67829;BMP280;54626;45.436;10.942;2023-03-13T03:36:21;100865.81;;;8.09
67829;BMP280;54626;45.436;10.942;2023-03-13T03:38:48;100869.09;;;8.08
67829;BMP280;54626;45.436;10.942;2023-03-13T03:41:15;100872.34;;;8.12
67829;BMP280;54626;45.436;10.942;2023-03-13T03:43:42;100871.31;;;8.09
67829;BMP280;54626;45.436;10.942;2023-03-13T03:46:09;100873.31;;;8.14
67829;BMP280;54626;45.436;10.942;2023-03-13T03:48:36;100874.00;;;8.20
67829;BMP280;54626;45.436;10.942;2023-03-13T03:51:03;100861.50;;;8.19
67829;BMP280;54626;45.436;10.942;2023-03-13T03:53:29;100869.53;;;8.23
67829;BMP280;54626;45.436;10.942;2023-03-13T03:55:57;100866.25;;;8.24
67829;BMP280;54626;45.436;10.942;2023-03-13T03:58:24;100873.25;;;8.25
67829;BMP280;54626;45.436;10.942;2023-03-13T04:00:51;100859.69;;;8.27
67829;BMP280;54626;45.436;10.942;2023-03-13T04:03:18;100865.19;;;8.32
67829;BMP280;54626;45.436;10.942;2023-03-13T04:05:44;100867.66;;;8.36
67829;BMP280;54626;45.436;10.942;2023-03-13T04:08:14;100870.91;;;8.40
67829;BMP280;54626;45.436;10.942;2023-03-13T04:10:40;100877.91;;;8.41
67829;BMP280;54626;45.436;10.942;2023-03-13T04:13:07;100874.13;;;8.44
67829;BMP280;54626;45.436;10.942;2023-03-13T04:15:34;100885.63;;;8.48
67829;BMP280;54626;45.436;10.942;2023-03-13T04:18:00;100883.09;;;8.50
67829;BMP280;54626;45.436;10.942;2023-03-13T04:20:26;100871.59;;;8.51
67829;BMP280;54626;45.436;10.942;2023-03-13T04:22:54;100875.84;;;8.52
67829;BMP280;54626;45.436;10.942;2023-03-13T04:25:20;100868.78;;;8.57
67829;BMP280;54626;45.436;10.942;2023-03-13T04:27:46;100865.81;;;8.55
67829;BMP280;54626;45.436;10.942;2023-03-13T04:30:14;100869.28;;;8.55
67829;BMP280;54626;45.436;10.942;2023-03-13T04:32:44;100863.31;;;8.51
67829;BMP280;54626;45.436;10.942;2023-03-13T04:35:10;100863.09;;;8.49
67829;BMP280;54626;45.436;10.942;2023-03-13T04:37:37;100864.03;;;8.57
67829;BMP280;54626;45.436;10.942;2023-03-13T04:40:04;100860.03;;;8.53
67829;BMP280;54626;45.436;10.942;2023-03-13T04:42:30;100860.81;;;8.48
67829;BMP280;54626;45.436;10.942;2023-03-13T04:44:57;100864.13;;;8.41
67829;BMP280;54626;45.436;10.942;2023-03-13T04:47:26;100857.44;;;8.31
67829;BMP280;54626;45.436;10.942;2023-03-13T04:49:52;100846.94;;;8.29
67829;BMP280;54626;45.436;10.942;2023-03-13T04:52:22;100850.28;;;8.06
67829;BMP280;54626;45.436;10.942;2023-03-13T04:54:48;100847.19;;;7.80
67829;BMP280;54626;45.436;10.942;2023-03-13T04:57:16;100845.75;;;7.63
67829;BMP280;54626;45.436;10.942;2023-03-13T04:59:42;100842.03;;;7.49
67829;BMP280;54626;45.436;10.942;2023-03-13T05:02:10;100849.75;;;7.62
67829;BMP280;54626;45.436;10.942;2023-03-13T05:04:37;100854.91;;;7.87
67829;BMP280;54626;45.436;10.942;2023-03-13T05:07:04;100859.09;;;8.05
67829;BMP280;54626;45.436;10.942;2023-03-13T05:09:30;100862.81;;;8.13
67829;BMP280;54626;45.436;10.942;2023-03-13T05:11:56;100869.03;;;8.19
67829;BMP280;54626;45.436;10.942;2023-03-13T05:14:24;100861.75;;;8.21
67829;BMP280;54626;45.436;10.942;2023-03-13T05:16:51;100854.19;;;8.27
67829;BMP280;54626;45.436;10.942;2023-03-13T05:19:17;100859.19;;;8.34
67829;BMP280;54626;45.436;10.942;2023-03-13T05:21:44;100853.63;;;8.39
67829;BMP280;54626;45.436;10.942;2023-03-13T05:24:10;100858.13;;;8.37
67829;BMP280;54626;45.436;10.942;2023-03-13T05:26:36;100859.38;;;8.41
67829;BMP280;54626;45.436;10.942;2023-03-13T05:29:03;100846.34;;;8.42
67829;BMP280;54626;45.436;10.942;2023-03-13T05:31:29;100846.59;;;8.44
67829;BMP280;54626;45.436;10.942;2023-03-13T05:33:56;100854.34;;;8.45
67829;BMP280;54626;45.436;10.942;2023-03-13T05:36:23;100857.56;;;8.49
67829;BMP280;54626;45.436;10.942;2023-03-13T05:38:50;100858.06;;;8.48
67829;BMP280;54626;45.436;10.942;2023-03-13T05:41:16;100869.41;;;8.44
67829;BMP280;54626;45.436;10.942;2023-03-13T05:43:43;100867.19;;;8.32
67829;BMP280;54626;45.436;10.942;2023-03-13T05:46:09;100856.47;;;8.23
67829;BMP280;54626;45.436;10.942;2023-03-13T05:48:36;100849.75;;;8.19
67829;BMP280;54626;45.436;10.942;2023-03-13T05:51:06;100851.97;;;8.20
67829;BMP280;54626;45.436;10.942;2023-03-13T05:53:32;100857.00;;;8.22
67829;BMP280;54626;45.436;10.942;2023-03-13T05:55:58;100852.47;;;8.24
67829;BMP280;54626;45.436;10.942;2023-03-13T05:58:25;100856.47;;;8.23
67829;BMP280;54626;45.436;10.942;2023-03-13T06:00:51;100861.97;;;8.28
67829;BMP280;54626;45.436;10.942;2023-03-13T06:03:18;100861.69;;;8.32
67829;BMP280;54626;45.436;10.942;2023-03-13T06:05:44;100870.19;;;8.34
67829;BMP280;54626;45.436;10.942;2023-03-13T06:08:11;100862.63;;;8.40
67829;BMP280;54626;45.436;10.942;2023-03-13T06:10:37;100873.09;;;8.47
67829;BMP280;54626;45.436;10.942;2023-03-13T06:13:03;100878.53;;;8.58
67829;BMP280;54626;45.436;10.942;2023-03-13T06:15:55;100880.03;;;8.59
67829;BMP280;54626;45.436;10.942;2023-03-13T06:18:22;100889.56;;;8.63
67829;BMP280;54626;45.436;10.942;2023-03-13T06:20:55;100886.03;;;8.63
67829;BMP280;54626;45.436;10.942;2023-03-13T06:23:24;100891.00;;;8.70
67829;BMP280;54626;45.436;10.942;2023-03-13T06:25:50;100891.19;;;8.77
67829;BMP280;54626;45.436;10.942;2023-03-13T06:28:18;100893.09;;;8.88
67829;BMP280;54626;45.436;10.942;2023-03-13T06:30:44;100883.94;;;9.03
67829;BMP280;54626;45.436;10.942;2023-03-13T06:33:11;100892.13;;;9.14
67829;BMP280;54626;45.436;10.942;2023-03-13T06:35:41;100890.53;;;9.24
67829;BMP280;54626;45.436;10.942;2023-03-13T06:38:22;100900.94;;;9.37
67829;BMP280;54626;45.436;10.942;2023-03-13T06:40:49;100894.53;;;9.47
67829;BMP280;54626;45.436;10.942;2023-03-13T06:43:15;100907.78;;;9.54
67829;BMP280;54626;45.436;10.942;2023-03-13T06:45:42;100917.28;;;9.59
67829;BMP280;54626;45.436;10.942;2023-03-13T06:48:08;100928.25;;;9.64
67829;BMP280;54626;45.436;10.942;2023-03-13T06:50:38;100921.41;;;9.71
67829;BMP280;54626;45.436;10.942;2023-03-13T06:53:05;100917.91;;;9.70
67829;BMP280;54626;45.436;10.942;2023-03-13T06:55:31;100907.53;;;9.76
67829;BMP280;54626;45.436;10.942;2023-03-13T06:58:00;100895.88;;;9.83
67829;BMP280;54626;45.436;10.942;2023-03-13T07:00:27;100894.03;;;9.91
67829;BMP280;54626;45.436;10.942;2023-03-13T07:02:53;100905.97;;;9.99
67829;BMP280;54626;45.436;10.942;2023-03-13T07:05:20;100903.59;;;10.08
67829;BMP280;54626;45.436;10.942;2023-03-13T07:07:47;100907.88;;;10.09
67829;BMP280;54626;45.436;10.942;2023-03-13T07:10:13;100911.53;;;10.17
67829;BMP280;54626;45.436;10.942;2023-03-13T07:12:39;100916.81;;;10.15
67829;BMP280;54626;45.436;10.942;2023-03-13T07:15:06;100918.06;;;10.20
67829;BMP280;54626;45.436;10.942;2023-03-13T07:17:33;100907.72;;;10.20
67829;BMP280;54626;45.436;10.942;2023-03-13T07:19:59;100910.31;;;10.31
67829;BMP280;54626;45.436;10.942;2023-03-13T07:22:27;100918.13;;;10.33
67829;BMP280;54626;45.436;10.942;2023-03-13T07:24:56;100916.03;;;10.39
67829;BMP280;54626;45.436;10.942;2023-03-13T07:27:22;100928.50;;;10.45
67829;BMP280;54626;45.436;10.942;2023-03-13T07:29:49;100920.78;;;10.57
67829;BMP280;54626;45.436;10.942;2023-03-13T07:32:15;100923.47;;;10.62
67829;BMP280;54626;45.436;10.942;2023-03-13T07:34:42;100920.41;;;10.66
67829;BMP280;54626;45.436;10.942;2023-03-13T07:37:12;100927.31;;;10.72
67829;BMP280;54626;45.436;10.942;2023-03-13T07:39:41;100913.22;;;10.75
67829;BMP280;54626;45.436;10.942;2023-03-13T07:42:09;100910.91;;;10.92
67829;BMP280;54626;45.436;10.942;2023-03-13T07:44:36;100907.53;;;10.99
67829;BMP280;54626;45.436;10.942;2023-03-13T07:47:03;100906.78;;;11.12
67829;BMP280;54626;45.436;10.942;2023-03-13T07:49:30;100908.50;;;11.28
67829;BMP280;54626;45.436;10.942;2023-03-13T07:51:56;100908.50;;;11.41
67829;BMP280;54626;45.436;10.942;2023-03-13T07:54:22;100895.53;;;11.48
67829;BMP280;54626;45.436;10.942;2023-03-13T07:56:49;100894.78;;;11.48
67829;BMP280;54626;45.436;10.942;2023-03-13T07:59:16;100905.44;;;11.57
67829;BMP280;54626;45.436;10.942;2023-03-13T08:01:43;100893.19;;;11.65
67829;BMP280;54626;45.436;10.942;2023-03-13T08:04:12;100896.91;;;11.81
67829;BMP280;54626;45.436;10.942;2023-03-13T08:06:39;100897.50;;;12.00
67829;BMP280;54626;45.436;10.942;2023-03-13T08:09:07;100900.84;;;12.18
67829;BMP280;54626;45.436;10.942;2023-03-13T08:11:33;100894.50;;;12.31
67829;BMP280;54626;45.436;10.942;2023-03-13T08:14:00;100891.81;;;12.38
67829;BMP280;54626;45.436;10.942;2023-03-13T08:16:27;100891.56;;;12.49
67829;BMP280;54626;45.436;10.942;2023-03-13T08:18:56;100888.53;;;12.60
67829;BMP280;54626;45.436;10.942;2023-03-13T08:21:25;100886.19;;;12.72
67829;BMP280;54626;45.436;10.942;2023-03-13T08:23:53;100887.53;;;12.98
67829;BMP280;54626;45.436;10.942;2023-03-13T08:26:22;100891.56;;;13.18
67829;BMP280;54626;45.436;10.942;2023-03-13T08:28:55;100893.22;;;13.21
67829;BMP280;54626;45.436;10.942;2023-03-13T08:31:25;100904.41;;;13.28
67829;BMP280;54626;45.436;10.942;2023-03-13T08:33:53;100912.84;;;13.43
67829;BMP280;54626;45.436;10.942;2023-03-13T08:36:28;100910.38;;;13.40
67829;BMP280;54626;45.436;10.942;2023-03-13T08:38:59;100909.78;;;13.62
67829;BMP280;54626;45.436;10.942;2023-03-13T08:41:31;100911.81;;;13.61
67829;BMP280;54626;45.436;10.942;2023-03-13T08:44:00;100918.00;;;13.74
67829;BMP280;54626;45.436;10.942;2023-03-13T08:46:32;100912.31;;;13.87
67829;BMP280;54626;45.436;10.942;2023-03-13T08:48:58;100917.97;;;13.67
67829;BMP280;54626;45.436;10.942;2023-03-13T08:51:27;100919.34;;;13.81
67829;BMP280;54626;45.436;10.942;2023-03-13T08:53:54;100921.91;;;13.79
67829;BMP280;54626;45.436;10.942;2023-03-13T08:56:26;100924.25;;;13.67
67829;BMP280;54626;45.436;10.942;2023-03-13T08:58:55;100929.41;;;13.56
67829;BMP280;54626;45.436;10.942;2023-03-13T09:01:24;100928.81;;;13.58
67829;BMP280;54626;45.436;10.942;2023-03-13T09:03:51;100927.38;;;13.64
67829;BMP280;54626;45.436;10.942;2023-03-13T09:06:18;100928.22;;;13.52
67829;BMP280;54626;45.436;10.942;2023-03-13T09:08:44;100925.28;;;13.50
67829;BMP280;54626;45.436;10.942;2023-03-13T09:11:16;100923.47;;;13.60
67829;BMP280;54626;45.436;10.942;2023-03-13T09:13:45;100926.72;;;13.78
67829;BMP280;54626;45.436;10.942;2023-03-13T09:16:14;100927.03;;;14.10
67829;BMP280;54626;45.436;10.942;2023-03-13T09:18:41;100930.59;;;14.26
67829;BMP280;54626;45.436;10.942;2023-03-13T09:21:15;100929.31;;;14.34
67829;BMP280;54626;45.436;10.942;2023-03-13T09:23:42;100925.78;;;14.41
67829;BMP280;54626;45.436;10.942;2023-03-13T09:26:08;100921.38;;;14.45
67829;BMP280;54626;45.436;10.942;2023-03-13T09:28:35;100915.63;;;14.73
67829;BMP280;54626;45.436;10.942;2023-03-13T09:31:10;100919.88;;;15.04
67829;BMP280;54626;45.436;10.942;2023-03-13T09:33:37;100918.00;;;14.92
67829;BMP280;54626;45.436;10.942;2023-03-13T09:36:04;100915.25;;;14.69
67829;BMP280;54626;45.436;10.942;2023-03-13T09:38:31;100902.41;;;15.11
67829;BMP280;54626;45.436;10.942;2023-03-13T09:41:19;100899.09;;;14.83
67829;BMP280;54626;45.436;10.942;2023-03-13T09:43:53;100909.66;;;14.77
67829;BMP280;54626;45.436;10.942;2023-03-13T09:46:48;100897.44;;;14.80
67829;BMP280;54626;45.436;10.942;2023-03-13T09:52:14;100897.53;;;15.19
67829;BMP280;54626;45.436;10.942;2023-03-13T09:57:33;100907.75;;;15.31
67829;BMP280;54626;45.436;10.942;2023-03-13T10:02:35;100898.28;;;15.73
67829;BMP280;54626;45.436;10.942;2023-03-13T10:05:07;100903.44;;;15.84
67829;BMP280;54626;45.436;10.942;2023-03-13T10:07:35;100904.25;;;15.77
67829;BMP280;54626;45.436;10.942;2023-03-13T10:10:05;100906.25;;;15.45
67829;BMP280;54626;45.436;10.942;2023-03-13T10:12:43;100902.44;;;15.58
67829;BMP280;54626;45.436;10.942;2023-03-13T10:15:39;100902.47;;;15.89
67829;BMP280;54626;45.436;10.942;2023-03-13T10:18:24;100903.97;;;15.90
67829;BMP280;54626;45.436;10.942;2023-03-13T10:20:53;100906.22;;;16.24
67829;BMP280;54626;45.436;10.942;2023-03-13T10:25:57;100898.53;;;16.00
67829;BMP280;54626;45.436;10.942;2023-03-13T10:28:24;100903.97;;;15.98
67829;BMP280;54626;45.436;10.942;2023-03-13T10:31:08;100904.88;;;16.25
67829;BMP280;54626;45.436;10.942;2023-03-13T10:33:43;100899.44;;;16.02
67829;BMP280;54626;45.436;10.942;2023-03-13T10:36:12;100894.03;;;16.04
67829;BMP280;54626;45.436;10.942;2023-03-13T10:38:50;100896.09;;;15.65
67829;BMP280;54626;45.436;10.942;2023-03-13T10:41:30;100893.38;;;15.89
67829;BMP280;54626;45.436;10.942;2023-03-13T10:44:02;100886.28;;;15.95
67829;BMP280;54626;45.436;10.942;2023-03-13T10:46:31;100888.34;;;15.95
67829;BMP280;54626;45.436;10.942;2023-03-13T10:49:02;100876.69;;;15.81
67829;BMP280;54626;45.436;10.942;2023-03-13T10:51:35;100865.66;;;15.59
67829;BMP280;54626;45.436;10.942;2023-03-13T10:54:26;100868.56;;;15.76
67829;BMP280;54626;45.436;10.942;2023-03-13T10:57:29;100879.28;;;15.87
67829;BMP280;54626;45.436;10.942;2023-03-13T10:59:57;100878.84;;;15.66
67829;BMP280;54626;45.436;10.942;2023-03-13T11:04:53;100881.53;;;15.81
67829;BMP280;54626;45.436;10.942;2023-03-13T11:07:29;100871.44;;;16.17
67829;BMP280;54626;45.436;10.942;2023-03-13T11:10:05;100861.34;;;16.87
67829;BMP280;54626;45.436;10.942;2023-03-13T11:12:51;100861.38;;;16.63
67829;BMP280;54626;45.436;10.942;2023-03-13T11:18:27;100844.81;;;16.98
67829;BMP280;54626;45.436;10.942;2023-03-13T11:20:57;100849.75;;;16.33
67829;BMP280;54626;45.436;10.942;2023-03-13T11:23:47;100840.31;;;16.86
67829;BMP280;54626;45.436;10.942;2023-03-13T11:26:37;100842.66;;;16.90
67829;BMP280;54626;45.436;10.942;2023-03-13T11:29:41;100841.59;;;17.36
67829;BMP280;54626;45.436;10.942;2023-03-13T11:32:21;100839.03;;;17.30
67829;BMP280;54626;45.436;10.942;2023-03-13T11:34:55;100826.31;;;17.20
67829;BMP280;54626;45.436;10.942;2023-03-13T11:37:21;100825.59;;;17.46
67829;BMP280;54626;45.436;10.942;2023-03-13T11:39:58;100827.19;;;17.92
67829;BMP280;54626;45.436;10.942;2023-03-13T11:45:38;100835.19;;;18.05
67829;BMP280;54626;45.436;10.942;2023-03-13T11:51:16;100833.13;;;17.09
67829;BMP280;54626;45.436;10.942;2023-03-13T11:56:36;100817.25;;;17.81
67829;BMP280;54626;45.436;10.942;2023-03-13T12:01:42;100799.16;;;17.82
67829;BMP280;54626;45.436;10.942;2023-03-13T12:04:24;100795.63;;;17.82
67829;BMP280;54626;45.436;10.942;2023-03-13T12:07:01;100784.97;;;18.16
67829;BMP280;54626;45.436;10.942;2023-03-13T12:09:35;100780.25;;;18.28
67829;BMP280;54626;45.436;10.942;2023-03-13T12:23:44;100767.00;;;18.76
67829;BMP280;54626;45.436;10.942;2023-03-13T12:26:14;100767.47;;;18.72
67829;BMP280;54626;45.436;10.942;2023-03-13T12:28:59;100759.06;;;18.63
67829;BMP280;54626;45.436;10.942;2023-03-13T12:31:37;100769.03;;;19.22
67829;BMP280;54626;45.436;10.942;2023-03-13T12:36:50;100749.44;;;18.84
67829;BMP280;54626;45.436;10.942;2023-03-13T12:39:38;100732.78;;;18.86
67829;BMP280;54626;45.436;10.942;2023-03-13T12:42:17;100732.19;;;18.88
67829;BMP280;54626;45.436;10.942;2023-03-13T12:44:46;100733.16;;;19.21
67829;BMP280;54626;45.436;10.942;2023-03-13T12:58:04;100702.25;;;18.90
67829;BMP280;54626;45.436;10.942;2023-03-13T13:00:43;100704.91;;;18.79
67829;BMP280;54626;45.436;10.942;2023-03-13T13:03:21;100691.16;;;19.02
67829;BMP280;54626;45.436;10.942;2023-03-13T13:06:10;100689.19;;;19.44
67829;BMP280;54626;45.436;10.942;2023-03-13T13:09:13;100680.56;;;18.81
67829;BMP280;54626;45.436;10.942;2023-03-13T13:16:59;100667.28;;;19.31
67829;BMP280;54626;45.436;10.942;2023-03-13T13:27:45;100670.00;;;18.52
67829;BMP280;54626;45.436;10.942;2023-03-13T13:32:47;100656.94;;;18.84
67829;BMP280;54626;45.436;10.942;2023-03-13T13:41:22;100646.41;;;18.64
67829;BMP280;54626;45.436;10.942;2023-03-13T13:44:19;100652.59;;;18.63
67829;BMP280;54626;45.436;10.942;2023-03-13T13:46:46;100637.81;;;18.72
67829;BMP280;54626;45.436;10.942;2023-03-13T13:49:16;100649.03;;;18.72
67829;BMP280;54626;45.436;10.942;2023-03-13T13:54:32;100640.34;;;18.68
67829;BMP280;54626;45.436;10.942;2023-03-13T13:57:01;100635.94;;;19.04
67829;BMP280;54626;45.436;10.942;2023-03-13T13:59:41;100633.34;;;18.87
67829;BMP280;54626;45.436;10.942;2023-03-13T14:02:19;100638.59;;;19.12
67829;BMP280;54626;45.436;10.942;2023-03-13T14:04:59;100629.88;;;19.38
67829;BMP280;54626;45.436;10.942;2023-03-13T14:07:28;100625.69;;;19.69
67829;BMP280;54626;45.436;10.942;2023-03-13T14:10:15;100621.22;;;19.76
67829;BMP280;54626;45.436;10.942;2023-03-13T14:12:47;100613.59;;;19.46
67829;BMP280;54626;45.436;10.942;2023-03-13T14:15:19;100613.28;;;19.21
67829;BMP280;54626;45.436;10.942;2023-03-13T14:17:46;100617.50;;;19.32
67829;BMP280;54626;45.436;10.942;2023-03-13T14:20:24;100612.25;;;19.47
67829;BMP280;54626;45.436;10.942;2023-03-13T14:22:52;100618.41;;;19.55
67829;BMP280;54626;45.436;10.942;2023-03-13T14:25:21;100613.09;;;19.91
67829;BMP280;54626;45.436;10.942;2023-03-13T14:27:48;100607.16;;;19.76
67829;BMP280;54626;45.436;10.942;2023-03-13T14:30:18;100612.47;;;19.60
67829;BMP280;54626;45.436;10.942;2023-03-13T14:32:45;100601.56;;;19.55
67829;BMP280;54626;45.436;10.942;2023-03-13T14:35:15;100598.66;;;19.23
67829;BMP280;54626;45.436;10.942;2023-03-13T14:37:44;100602.09;;;19.42
67829;BMP280;54626;45.436;10.942;2023-03-13T14:42:52;100599.56;;;19.46
67829;BMP280;54626;45.436;10.942;2023-03-13T14:45:33;100595.13;;;19.85
67829;BMP280;54626;45.436;10.942;2023-03-13T14:48:30;100583.59;;;20.01
67829;BMP280;54626;45.436;10.942;2023-03-13T14:51:02;100571.75;;;19.71
67829;BMP280;54626;45.436;10.942;2023-03-13T14:56:33;100577.16;;;18.85
67829;BMP280;54626;45.436;10.942;2023-03-13T14:59:18;100566.91;;;18.99
67829;BMP280;54626;45.436;10.942;2023-03-13T15:01:58;100560.53;;;19.71
67829;BMP280;54626;45.436;10.942;2023-03-13T15:04:52;100563.44;;;19.94
67829;BMP280;54626;45.436;10.942;2023-03-13T15:07:20;100559.63;;;20.21
67829;BMP280;54626;45.436;10.942;2023-03-13T15:09:48;100556.22;;;20.23
67829;BMP280;54626;45.436;10.942;2023-03-13T15:12:17;100542.78;;;20.33
67829;BMP280;54626;45.436;10.942;2023-03-13T15:14:48;100540.13;;;20.02
67829;BMP280;54626;45.436;10.942;2023-03-13T15:17:18;100536.06;;;19.62
67829;BMP280;54626;45.436;10.942;2023-03-13T15:19:50;100538.72;;;18.97
67829;BMP280;54626;45.436;10.942;2023-03-13T15:22:23;100530.06;;;18.54
67829;BMP280;54626;45.436;10.942;2023-03-13T15:24:51;100542.50;;;18.41
67829;BMP280;54626;45.436;10.942;2023-03-13T15:27:31;100537.06;;;18.34
67829;BMP280;54626;45.436;10.942;2023-03-13T15:29:59;100542.28;;;18.09
67829;BMP280;54626;45.436;10.942;2023-03-13T15:32:33;100542.75;;;17.87
67829;BMP280;54626;45.436;10.942;2023-03-13T15:35:15;100538.75;;;17.90